createdAt,value
2022-08-10T00:00:59.486Z,91.45
2022-08-10T00:03:27.776Z,90.64
2022-08-10T00:05:57.147Z,90.10
2022-08-10T00:08:26.242Z,90.27
2022-08-10T00:10:55.208Z,90.50
2022-08-10T00:13:24.526Z,91.16
2022-08-10T00:15:54.943Z,91.58
2022-08-10T00:18:31.575Z,92.37
2022-08-10T00:21:06.156Z,94.48
2022-08-10T00:23:34.366Z,93.68
2022-08-10T00:26:02.823Z,92.31
2022-08-10T00:28:30.997Z,92.07
2022-08-10T00:30:59.013Z,93.23
2022-08-10T00:33:27.014Z,93.15
2022-08-10T00:35:55.010Z,92.74
2022-08-10T00:38:24.499Z,92.25
2022-08-10T00:40:52.572Z,91.72
2022-08-10T00:43:23.471Z,91.94
2022-08-10T00:45:59.571Z,93.44
2022-08-10T00:48:29.673Z,95.53
2022-08-10T00:50:57.814Z,99.87
2022-08-10T00:53:27.519Z,100.00
2022-08-10T00:57:12.243Z,100.00
2022-08-10T00:58:44.156Z,100.00
2022-08-10T01:02:09.841Z,99.28
2022-08-10T01:04:57.859Z,97.59
2022-08-10T01:06:57.099Z,96.79
2022-08-10T01:09:31.985Z,96.66
2022-08-10T01:12:37.736Z,96.24
2022-08-10T01:14:57.275Z,96.39
2022-08-10T01:17:50.535Z,95.82
2022-08-10T01:20:30.181Z,96.81
2022-08-10T01:23:28.094Z,98.02
2022-08-10T01:26:31.272Z,97.52
2022-08-10T01:29:09.808Z,98.02
2022-08-10T01:31:43.050Z,97.39
2022-08-10T01:34:14.500Z,97.19
2022-08-10T01:36:49.616Z,96.83
2022-08-10T01:39:23.480Z,96.32
2022-08-10T01:41:56.119Z,100.00
2022-08-10T01:44:27.153Z,100.00
2022-08-10T01:47:22.656Z,100.00
2022-08-10T01:49:59.693Z,100.00
2022-08-10T01:52:29.172Z,98.75
2022-08-10T01:54:58.006Z,99.22
2022-08-10T01:57:26.921Z,98.38
2022-08-10T02:00:01.920Z,98.15
2022-08-10T02:02:32.908Z,97.92
2022-08-10T02:05:02.228Z,97.15
2022-08-10T02:07:32.242Z,98.92
2022-08-10T02:10:03.873Z,100.00
2022-08-10T02:12:33.740Z,100.00
2022-08-10T02:15:05.307Z,99.44
2022-08-10T02:17:57.612Z,100.00
2022-08-10T02:20:31.354Z,100.00
2022-08-10T02:23:02.310Z,100.00
2022-08-10T02:25:41.123Z,100.00
2022-08-10T02:28:12.546Z,100.00
2022-08-10T02:30:57.556Z,99.59
2022-08-10T02:33:27.925Z,100.00
2022-08-10T02:35:57.332Z,100.00
2022-08-10T02:38:59.038Z,100.00
2022-08-10T02:45:14.466Z,100.00
2022-08-10T02:45:22.692Z,100.00
2022-08-10T02:47:16.035Z,100.00
2022-08-10T02:49:51.218Z,99.48
2022-08-10T02:52:23.241Z,100.00
2022-08-10T02:54:54.723Z,100.00
2022-08-10T02:57:26.228Z,100.00
2022-08-10T02:59:59.034Z,100.00
2022-08-10T03:02:30.390Z,100.00
2022-08-10T03:05:02.991Z,100.00
2022-08-10T03:07:43.261Z,100.00
2022-08-10T03:10:16.158Z,100.00
2022-08-10T03:12:44.844Z,100.00
2022-08-10T03:15:15.417Z,100.00
2022-08-10T03:17:58.140Z,100.00
2022-08-10T03:23:20.683Z,100.00
2022-08-10T03:25:53.324Z,100.00
2022-08-10T03:28:23.217Z,100.00
2022-08-10T03:30:51.564Z,100.00
2022-08-10T03:33:20.187Z,100.00
2022-08-10T03:36:43.773Z,100.00
2022-08-10T03:38:37.663Z,100.00
2022-08-10T03:41:06.999Z,99.62
2022-08-10T03:43:35.264Z,99.70
2022-08-10T03:46:07.433Z,99.69
2022-08-10T03:48:49.483Z,99.71
2022-08-10T03:51:20.574Z,100.00
2022-08-10T03:54:02.777Z,99.68
2022-08-10T03:56:33.140Z,99.92
2022-08-10T03:59:01.783Z,100.00
2022-08-10T04:02:42.233Z,100.00
2022-08-10T04:04:23.704Z,100.00
2022-08-10T04:06:55.215Z,100.00
2022-08-10T04:09:24.785Z,100.00
2022-08-10T04:12:10.989Z,100.00
2022-08-10T04:14:50.586Z,100.00
2022-08-10T04:17:59.475Z,100.00
2022-08-10T04:20:10.899Z,100.00
2022-08-10T04:22:41.192Z,100.00
2022-08-10T04:25:10.240Z,100.00
2022-08-10T04:27:38.577Z,100.00
2022-08-10T04:30:07.678Z,99.91
2022-08-10T04:32:35.845Z,99.51
2022-08-10T04:35:05.412Z,100.00
2022-08-10T04:37:34.724Z,100.00
2022-08-10T04:40:05.085Z,99.84
2022-08-10T04:42:53.196Z,99.56
2022-08-10T04:45:49.927Z,100.00
2022-08-10T04:48:40.072Z,100.00
2022-08-10T04:51:06.023Z,100.00
2022-08-10T04:54:05.857Z,100.00
2022-08-10T04:56:31.496Z,99.77
2022-08-10T04:59:00.422Z,99.40
2022-08-10T05:01:37.759Z,98.71
2022-08-10T05:04:35.528Z,98.83
2022-08-10T05:07:04.415Z,99.34
2022-08-10T05:09:32.460Z,98.95
2022-08-10T05:12:01.785Z,98.86
2022-08-10T05:14:29.765Z,100.00
2022-08-10T05:16:57.737Z,98.53
2022-08-10T05:20:03.000Z,98.13
2022-08-10T05:22:14.184Z,98.38
2022-08-10T05:24:42.143Z,99.27
2022-08-10T05:27:11.540Z,98.19
2022-08-10T05:29:39.496Z,98.50
2022-08-10T05:32:07.659Z,98.62
2022-08-10T05:34:35.596Z,98.88
2022-08-10T05:37:04.207Z,98.57
2022-08-10T05:39:33.348Z,99.44
2022-08-10T05:42:01.847Z,99.38
2022-08-10T05:44:31.551Z,99.16
2022-08-10T05:46:59.562Z,99.90
2022-08-10T05:49:27.720Z,100.00
2022-08-10T05:51:55.686Z,100.00
2022-08-10T05:54:25.596Z,99.37
2022-08-10T05:56:58.099Z,100.00
2022-08-10T06:00:31.037Z,97.79
2022-08-10T06:02:32.783Z,100.00
2022-08-10T06:05:07.227Z,97.41
2022-08-10T06:07:36.993Z,100.00
2022-08-10T06:10:10.253Z,100.00
2022-08-10T06:12:55.179Z,98.82
2022-08-10T06:15:50.967Z,100.00
2022-08-10T06:18:15.499Z,100.00
2022-08-10T06:20:44.265Z,100.00
2022-08-10T06:23:13.106Z,100.00
2022-08-10T06:26:12.269Z,100.00
2022-08-10T06:28:35.062Z,100.00
2022-08-10T06:31:04.077Z,100.00
2022-08-10T06:33:37.352Z,100.00
2022-08-10T06:36:07.656Z,99.54
2022-08-10T06:38:36.545Z,100.00
2022-08-10T06:41:09.632Z,100.00
2022-08-10T06:43:38.017Z,100.00
2022-08-10T06:46:10.260Z,98.33
2022-08-10T06:48:45.406Z,100.00
2022-08-10T06:51:18.173Z,100.00
2022-08-10T06:53:53.998Z,99.54
2022-08-10T06:56:36.708Z,97.09
2022-08-10T06:59:21.155Z,100.00
2022-08-10T07:01:52.010Z,96.09
2022-08-10T07:04:32.362Z,95.52
2022-08-10T07:07:03.418Z,96.66
2022-08-10T07:09:32.178Z,100.00
2022-08-10T07:12:08.540Z,100.00
2022-08-10T07:14:39.041Z,97.29
2022-08-10T07:17:07.554Z,95.19
2022-08-10T07:19:49.880Z,100.00
2022-08-10T07:23:22.773Z,98.27
2022-08-10T07:25:13.134Z,96.35
2022-08-10T07:27:58.655Z,95.01
2022-08-10T07:30:30.242Z,95.51
2022-08-10T07:32:58.797Z,96.64
2022-08-10T07:35:34.793Z,96.22
2022-08-10T07:38:06.105Z,95.68
2022-08-10T07:40:35.331Z,95.18
2022-08-10T07:43:03.983Z,98.59
2022-08-10T07:45:33.489Z,97.46
2022-08-10T07:48:07.438Z,96.18
2022-08-10T07:50:40.350Z,93.75
2022-08-10T07:53:11.313Z,98.29
2022-08-10T07:56:07.948Z,95.34
2022-08-10T07:58:31.957Z,93.01
2022-08-10T08:01:00.869Z,90.44
2022-08-10T08:03:30.661Z,88.46
2022-08-10T08:06:05.603Z,87.14
2022-08-10T08:08:40.417Z,89.75
2022-08-10T08:11:09.475Z,88.93
2022-08-10T08:13:55.216Z,85.17
2022-08-10T08:16:24.373Z,86.60
2022-08-10T08:24:04.825Z,84.98
2022-08-10T08:24:34.661Z,81.36
2022-08-10T08:27:04.154Z,81.38
2022-08-10T08:29:35.417Z,79.47
2022-08-10T08:32:04.312Z,78.72
2022-08-10T08:34:33.378Z,80.15
2022-08-10T08:37:04.837Z,78.08
2022-08-10T08:39:33.671Z,78.22
2022-08-10T08:42:37.170Z,76.19
2022-08-10T08:45:12.370Z,76.16
2022-08-10T08:48:07.004Z,75.10
2022-08-10T08:50:43.958Z,74.21
2022-08-10T08:54:01.026Z,79.42
2022-08-10T08:56:21.440Z,74.51
2022-08-10T08:59:13.007Z,73.55
2022-08-10T09:01:51.721Z,73.63
2022-08-10T09:04:34.664Z,70.59
2022-08-10T09:07:59.445Z,70.10
2022-08-10T09:10:22.850Z,72.38
2022-08-10T09:12:57.001Z,72.82
2022-08-10T09:15:40.350Z,71.53
2022-08-10T09:18:20.052Z,68.61
2022-08-10T09:21:19.348Z,70.27
2022-08-10T09:24:04.495Z,72.93
2022-08-10T09:26:45.927Z,69.07
2022-08-10T09:29:16.656Z,65.65
2022-08-10T09:31:55.792Z,65.93
2022-08-10T09:36:20.093Z,66.48
2022-08-10T09:38:02.225Z,63.17
2022-08-10T09:40:59.304Z,62.44
2022-08-10T09:43:36.614Z,58.14
2022-08-10T09:46:11.740Z,60.18
2022-08-10T09:48:47.429Z,58.41
2022-08-10T09:51:44.256Z,58.41
2022-08-10T09:54:31.989Z,59.59
2022-08-10T10:00:11.624Z,58.57
2022-08-10T10:02:48.537Z,54.19
2022-08-10T10:05:27.286Z,55.14
2022-08-10T10:08:01.489Z,60.61
2022-08-10T10:10:42.200Z,55.14
2022-08-10T10:14:01.791Z,55.38
2022-08-10T10:16:40.831Z,53.63
2022-08-10T10:19:28.989Z,53.28
2022-08-10T10:22:15.160Z,52.41
2022-08-10T10:24:49.003Z,54.54
2022-08-10T10:27:25.143Z,58.55
2022-08-10T10:29:59.277Z,62.86
2022-08-10T10:32:39.876Z,53.45
2022-08-10T10:35:30.196Z,52.63
2022-08-10T10:38:01.407Z,52.02
2022-08-10T10:40:39.284Z,50.75
2022-08-10T10:43:17.121Z,50.07
2022-08-10T10:45:53.045Z,53.91
2022-08-10T10:48:34.308Z,52.82
2022-08-10T10:51:16.564Z,49.30
2022-08-10T10:53:49.230Z,48.41
2022-08-10T10:56:21.616Z,45.61
2022-08-10T10:58:56.862Z,49.26
2022-08-10T11:01:30.523Z,50.83
2022-08-10T11:04:19.442Z,52.05
2022-08-10T11:06:57.474Z,49.33
2022-08-10T11:10:08.983Z,46.91
2022-08-10T11:14:26.710Z,46.80
2022-08-10T11:16:09.077Z,46.02
2022-08-10T11:19:10.909Z,45.98
2022-08-10T11:21:53.646Z,45.03
2022-08-10T11:24:46.840Z,46.05
2022-08-10T11:27:32.669Z,47.13
2022-08-10T11:30:07.280Z,44.98
2022-08-10T11:32:51.348Z,45.73
2022-08-10T11:35:24.305Z,48.43
2022-08-10T11:38:34.538Z,49.27
2022-08-10T11:41:12.854Z,45.37
2022-08-10T11:43:58.621Z,44.77
2022-08-10T11:46:32.277Z,46.47
2022-08-10T11:49:43.079Z,43.98
2022-08-10T11:52:15.279Z,42.64
2022-08-10T11:54:50.736Z,43.88
2022-08-10T11:57:19.766Z,43.83
2022-08-10T11:59:58.523Z,43.21
2022-08-10T12:02:30.938Z,39.50
2022-08-10T12:05:02.141Z,45.63
2022-08-10T12:10:06.565Z,48.86
2022-08-10T12:10:23.767Z,42.38
2022-08-10T12:12:56.479Z,42.24
2022-08-10T12:15:34.072Z,41.34
2022-08-10T12:18:05.977Z,40.81
2022-08-10T12:20:37.317Z,45.83
2022-08-10T12:23:19.137Z,42.28
2022-08-10T12:25:57.145Z,41.11
2022-08-10T12:28:49.284Z,40.51
2022-08-10T12:31:23.441Z,40.70
2022-08-10T12:34:08.165Z,40.57
2022-08-10T12:36:41.589Z,40.97
2022-08-10T12:39:15.176Z,39.26
2022-08-10T12:41:51.424Z,40.37
2022-08-10T12:44:24.037Z,37.86
2022-08-10T12:47:18.147Z,38.22
2022-08-10T12:50:31.460Z,38.77
2022-08-10T12:52:50.320Z,42.08
2022-08-10T12:55:19.514Z,40.04
2022-08-10T12:57:54.021Z,40.83
2022-08-10T13:00:29.723Z,39.46
2022-08-10T13:02:59.081Z,38.92
2022-08-10T13:05:28.732Z,39.87
2022-08-10T13:08:34.237Z,42.50
2022-08-10T13:11:04.680Z,41.85
2022-08-10T13:13:54.825Z,38.40
2022-08-10T13:16:23.955Z,40.81
2022-08-10T13:19:01.421Z,38.52
2022-08-10T13:21:34.594Z,39.06
2022-08-10T13:24:05.387Z,38.09
2022-08-10T13:27:23.580Z,36.65
2022-08-10T13:29:36.057Z,40.04
2022-08-10T13:32:09.626Z,39.15
2022-08-10T13:34:44.933Z,35.57
2022-08-10T13:37:20.917Z,38.09
2022-08-10T13:39:59.311Z,34.23
2022-08-10T13:42:33.530Z,39.10
2022-08-10T13:45:35.939Z,34.17
2022-08-10T13:48:41.311Z,36.29
2022-08-10T13:51:17.424Z,38.42
2022-08-10T13:53:54.397Z,39.26
2022-08-10T13:56:35.683Z,36.24
2022-08-10T14:00:36.039Z,35.14
2022-08-10T14:03:01.727Z,34.92
2022-08-10T14:05:39.567Z,33.99
2022-08-10T14:08:22.665Z,34.73
2022-08-10T14:11:10.154Z,35.43
2022-08-10T14:13:53.497Z,37.52
2022-08-10T14:16:40.767Z,36.19
2022-08-10T14:19:21.423Z,34.91
2022-08-10T14:21:50.802Z,34.36
2022-08-10T14:24:24.014Z,34.42
2022-08-10T14:26:58.976Z,34.53
2022-08-10T14:29:53.363Z,33.93
2022-08-10T14:32:31.186Z,34.93
2022-08-10T14:36:22.199Z,34.24
2022-08-10T14:38:10.580Z,34.54
2022-08-10T14:40:47.363Z,35.37
2022-08-10T14:43:28.801Z,35.50
2022-08-10T14:46:06.077Z,33.74
2022-08-10T14:48:45.522Z,34.06
2022-08-10T14:51:47.630Z,33.37
2022-08-10T14:54:17.687Z,32.68
2022-08-10T14:56:50.240Z,32.24
2022-08-10T14:59:19.334Z,32.78
2022-08-10T15:02:38.618Z,33.07
2022-08-10T15:04:56.442Z,33.16
2022-08-10T15:07:37.833Z,30.50
2022-08-10T15:10:13.307Z,30.17
2022-08-10T15:12:46.955Z,33.28
2022-08-10T15:15:16.465Z,32.22
2022-08-10T15:17:53.014Z,32.52
2022-08-10T15:20:26.673Z,30.91
2022-08-10T15:23:01.678Z,31.04
2022-08-10T15:25:57.808Z,32.35
2022-08-10T15:28:35.841Z,29.95
2022-08-10T15:31:21.488Z,30.55
2022-08-10T15:34:09.541Z,30.11
2022-08-10T15:37:40.821Z,29.95
2022-08-10T15:40:23.743Z,31.71
2022-08-10T15:42:58.305Z,31.59
2022-08-10T15:45:26.804Z,30.13
2022-08-10T15:48:02.444Z,30.33
2022-08-10T15:50:34.273Z,29.91
2022-08-10T15:53:15.673Z,31.13
2022-08-10T15:55:54.451Z,29.44
2022-08-10T15:58:39.710Z,32.30
2022-08-10T16:02:12.702Z,31.67
2022-08-10T16:04:08.526Z,30.94
2022-08-10T16:06:44.075Z,28.45
2022-08-10T16:10:23.582Z,30.25
2022-08-10T16:12:17.921Z,28.60
2022-08-10T16:14:58.338Z,27.85
2022-08-10T16:17:27.621Z,32.43
2022-08-10T16:19:58.621Z,29.98
2022-08-10T16:22:36.208Z,30.35
2022-08-10T16:25:22.781Z,30.85
2022-08-10T16:27:53.365Z,30.41
2022-08-10T16:30:21.476Z,30.95
2022-08-10T16:32:50.959Z,29.54
2022-08-10T16:35:19.358Z,30.16
2022-08-10T16:37:58.911Z,31.30
2022-08-10T16:40:31.631Z,31.06
2022-08-10T16:43:27.112Z,28.88
2022-08-10T16:46:10.349Z,27.34
2022-08-10T16:51:30.600Z,30.41
2022-08-10T16:54:00.846Z,30.41
2022-08-10T16:56:33.142Z,29.64
2022-08-10T16:59:06.541Z,29.81
2022-08-10T17:01:39.415Z,27.10
2022-08-10T17:04:10.353Z,27.63
2022-08-10T17:06:42.636Z,25.85
2022-08-10T17:09:45.783Z,31.23
2022-08-10T17:12:27.100Z,30.83
2022-08-10T17:15:34.611Z,30.91
2022-08-10T17:18:05.346Z,30.73
2022-08-10T17:20:44.317Z,30.23
2022-08-10T17:23:19.910Z,30.30
2022-08-10T17:25:51.022Z,27.67
2022-08-10T17:28:40.278Z,30.13
2022-08-10T17:31:24.148Z,30.77
2022-08-10T17:34:21.664Z,30.51
2022-08-10T17:36:57.615Z,29.02
2022-08-10T17:39:54.983Z,32.45
2022-08-10T17:42:36.237Z,30.80
2022-08-10T17:45:48.720Z,33.90
2022-08-10T17:48:51.978Z,34.39
2022-08-10T17:51:20.239Z,37.19
2022-08-10T17:53:49.911Z,40.20
2022-08-10T17:56:18.902Z,40.79
2022-08-10T17:58:50.542Z,41.33
2022-08-10T18:01:40.949Z,40.02
2022-08-10T18:04:15.712Z,44.21
2022-08-10T18:06:44.679Z,45.27
2022-08-10T18:09:19.832Z,45.86
2022-08-10T18:11:51.327Z,41.86
2022-08-10T18:14:25.223Z,45.27
2022-08-10T18:16:55.615Z,44.65
2022-08-10T18:19:25.218Z,45.02
2022-08-10T18:22:01.572Z,45.57
2022-08-10T18:24:30.473Z,45.16
2022-08-10T18:27:03.802Z,45.83
2022-08-10T18:29:35.603Z,45.21
2022-08-10T18:32:05.298Z,45.76
2022-08-10T18:34:35.440Z,47.63
2022-08-10T18:37:06.962Z,46.16
2022-08-10T18:39:37.680Z,45.84
2022-08-10T18:42:11.782Z,47.26
2022-08-10T18:44:43.953Z,49.35
2022-08-10T18:47:16.239Z,49.91
2022-08-10T18:49:59.558Z,49.84
2022-08-10T18:52:32.021Z,50.79
2022-08-10T18:55:22.870Z,51.85
2022-08-10T18:58:06.085Z,50.51
2022-08-10T19:00:40.546Z,50.37
2022-08-10T19:03:23.780Z,49.36
2022-08-10T19:06:11.502Z,52.40
2022-08-10T19:09:46.062Z,51.91
2022-08-10T19:12:30.661Z,54.16
2022-08-10T19:15:15.051Z,53.82
2022-08-10T19:18:06.354Z,53.12
2022-08-10T19:20:50.533Z,54.77
2022-08-10T19:24:42.640Z,54.89
2022-08-10T19:27:16.040Z,54.84
2022-08-10T19:30:08.501Z,55.74
2022-08-10T19:32:52.963Z,53.92
2022-08-10T19:35:30.191Z,54.89
2022-08-10T19:38:07.802Z,54.61
2022-08-10T19:41:09.570Z,54.47
2022-08-10T19:44:00.576Z,55.68
2022-08-10T19:46:42.551Z,56.56
2022-08-10T19:49:29.742Z,59.66
2022-08-10T19:52:11.296Z,60.38
2022-08-10T19:55:08.531Z,58.95
2022-08-10T19:57:50.219Z,58.98
2022-08-10T20:00:27.001Z,61.90
2022-08-10T20:03:11.960Z,61.43
2022-08-10T20:06:13.355Z,62.45
2022-08-10T20:08:50.996Z,62.09
2022-08-10T20:11:44.618Z,64.03
2022-08-10T20:14:21.984Z,62.60
2022-08-10T20:16:53.504Z,68.16
2022-08-10T20:19:52.778Z,74.45
2022-08-10T20:22:29.102Z,70.47
2022-08-10T20:25:04.520Z,68.67
2022-08-10T20:27:58.757Z,87.93
2022-08-10T20:30:33.602Z,87.47
2022-08-10T20:33:09.897Z,71.99
2022-08-10T20:35:53.465Z,69.58
2022-08-10T20:38:30.585Z,71.92
2022-08-10T20:41:07.872Z,72.31
2022-08-10T20:43:44.159Z,68.74
2022-08-10T20:49:40.363Z,83.69
2022-08-10T20:52:09.617Z,75.49
2022-08-10T20:54:42.728Z,76.77
2022-08-10T20:57:56.891Z,84.03
2022-08-10T21:00:26.570Z,86.70
2022-08-10T21:03:16.006Z,84.39
2022-08-10T21:06:05.441Z,80.90
2022-08-10T21:08:44.466Z,82.58
2022-08-10T21:11:20.148Z,78.21
2022-08-10T21:14:27.029Z,75.68
2022-08-10T21:17:35.005Z,72.47
2022-08-10T21:20:30.594Z,72.01
2022-08-10T21:23:05.500Z,78.77
2022-08-10T21:25:44.121Z,73.53
2022-08-10T21:28:56.141Z,76.27
2022-08-10T21:31:37.425Z,73.54
2022-08-10T21:45:38.543Z,68.35
2022-08-10T21:48:35.926Z,69.11
2022-08-10T21:52:01.907Z,68.99
2022-08-10T21:54:44.329Z,70.19
2022-08-10T21:58:18.945Z,71.19
2022-08-10T22:01:42.223Z,72.15
2022-08-10T22:05:10.672Z,73.24
2022-08-10T22:07:57.740Z,73.05
2022-08-10T22:10:49.274Z,73.72
2022-08-10T22:13:37.279Z,72.93
2022-08-10T22:16:28.065Z,71.58
2022-08-10T22:19:17.880Z,71.27
2022-08-10T22:38:18.670Z,72.38
2022-08-10T22:41:12.763Z,73.96
2022-08-10T22:44:01.226Z,77.43
2022-08-10T22:46:51.353Z,77.54
2022-08-10T22:49:23.786Z,76.05
2022-08-10T22:53:01.717Z,75.62
2022-08-10T22:56:35.026Z,75.46
2022-08-10T23:03:33.048Z,74.79
2022-08-10T23:07:00.834Z,75.39
2022-08-10T23:13:35.978Z,78.41
2022-08-10T23:20:06.222Z,81.02
2022-08-10T23:27:13.076Z,78.23
2022-08-10T23:32:01.143Z,77.63
2022-08-10T23:42:36.661Z,77.83
2022-08-10T23:45:52.508Z,77.73
2022-08-10T23:49:16.165Z,78.04
2022-08-10T23:52:18.856Z,77.95
2022-08-10T23:55:03.670Z,78.16
2022-08-10T23:58:39.539Z,78.81
